Home > Products > Valid Products > MTR

000
SAUS45 KTFX 200526
MTR8S0
METAR K8S0 200515Z 26009KT





000
SAUS45 KTFX 200457
MTRGFA
METAR KGFA 200456Z AUTO 14007KT 10SM CLR 05/M04 A2978 RMK AO2 SLP119
T00501039 TSNO $





000
SAUS45 KTFX 200456
MTR8S0
METAR K8S0 200445Z 24005KT





000
SAUS45 KTFX 200455
MTRLWT
METAR KLWT 200454Z AUTO 13008KT 10SM CLR 06/M06 A2984 RMK AO2 SLP104
T00611061 TSNO





000
SAUS45 KTFX 200426
MTR8S0
METAR K8S0 200415Z 25005KT





000
SAUS45 KTFX 200357
MTRGFA
METAR KGFA 200356Z AUTO 14008KT 10SM CLR 07/M05 A2979 RMK AO2 SLP124
T00671050 TSNO $





000
SAUS45 KTFX 200356
MTR8S0
METAR K8S0 200345Z 24002KT





000
SAUS45 KTFX 200355
MTRLWT
METAR KLWT 200354Z AUTO 10006KT 10SM CLR 06/M06 A2985 RMK AO2 SLP109
T00561056 TSNO





000
SAUS45 KTFX 200326
MTR8S0
METAR K8S0 200315Z 21002KT





000
SAUS45 KTFX 200257
MTRGFA
METAR KGFA 200256Z AUTO 13003KT 10SM CLR 11/M07 A2979 RMK AO2 SLP121
T01061072 55000 TSNO $





000
SAUS45 KTFX 200256
MTR8S0
METAR K8S0 200245Z 21002KT





000
SAUS45 KTFX 200255
MTRLWT
METAR KLWT 200254Z AUTO 15004KT 10SM CLR 08/M06 A2985 RMK AO2 SLP107
T00831056 55003 TSNO





000
SAUS45 KTFX 200226
MTR8S0
METAR K8S0 200215Z 00000KT





000
SAUS45 KTFX 200157
MTRGFA
METAR KGFA 200156Z AUTO 00000KT 10SM CLR 15/M11 A2978 RMK AO2 SLP117
T01501111 TSNO $





000
SAUS45 KTFX 200156
MTR8S0
METAR K8S0 200145Z 23006KT





000
SAUS45 KTFX 200155
MTRLWT
METAR KLWT 200154Z AUTO 00000KT 10SM CLR 13/M07 A2984 RMK AO2 SLP100
T01331072 TSNO





000
SAUS45 KTFX 200126
MTR8S0
METAR K8S0 200115Z 26005KT





000
SAUS45 KTFX 200058
MTRGFA
METAR KGFA 200056Z AUTO 25006KT 10SM CLR 18/M14 A2979 RMK AO2 SLP121
T01781139 TSNO $





000
SAUS45 KTFX 200055
MTR8S0
METAR K8S0 200045Z 25006KT





000
SAUS45 KTFX 200055
MTRLWT
METAR KLWT 200054Z AUTO 25007KT 10SM CLR 16/M08 A2985 RMK AO2 SLP109
T01561078 TSNO





000
SAUS45 KTFX 200027
MTR8S0
METAR K8S0 200015Z 28005KT





000
SAUS45 KTFX 192357
MTRGFA
METAR KGFA 192356Z AUTO 22012G20KT 10SM CLR 18/M15 A2979 RMK AO2
SLP119 T01831150 10183 20122 56016 TSNO $





000
SAUS45 KTFX 192356
MTR8S0
METAR K8S0 192345Z 26008KT





000
SAUS45 KTFX 192355
MTRLWT
METAR KLWT 192354Z AUTO 26008G17KT 220V300 10SM CLR 16/M12 A2986 RMK
AO2 SLP111 T01611117 10167 20111 56010 TSNO





000
SAUS45 KTFX 192327
MTR8S0
METAR K8S0 192315Z 26010KT





000
SAUS45 KTFX 192257
MTRGFA
METAR KGFA 192256Z AUTO 19013G18KT 10SM CLR 18/M11 A2980 RMK AO2
SLP125 T01781106 TSNO $





000
SAUS45 KTFX 192256
MTR8S0
METAR K8S0 192245Z 26011KT





000
SAUS45 KTFX 192256
MTRLWT
METAR KLWT 192254Z AUTO 29008KT 10SM CLR 16/M13 A2987 RMK AO2 SLP110
T01611128 TSNO





000
SAUS45 KTFX 192227
MTR8S0
METAR K8S0 192215Z 25012KT





000
SAUS45 KTFX 192157
MTRGFA
METAR KGFA 192156Z AUTO 21014G23KT 10SM CLR 17/M12 A2982 RMK AO2
SLP128 T01721117 TSNO $





000
SAUS45 KTFX 192155
MTRLWT
METAR KLWT 192154Z AUTO 29006KT 10SM CLR 16/M13 A2988 RMK AO2 SLP115
T01561128 TSNO





000
SAUS45 KTFX 192155
MTR8S0
METAR K8S0 192145Z 26010KT





000
SAUS45 KTFX 192126
MTR8S0
METAR K8S0 192115Z 25012KT





000
SAUS45 KTFX 192057
MTRGFA
METAR KGFA 192056Z AUTO 23011G24KT 10SM CLR 16/M11 A2984 RMK AO2
SLP139 T01611106 58014 TSNO $





000
SAUS45 KTFX 192056
MTR8S0
METAR K8S0 192045Z 25014G25KT





000
SAUS45 KTFX 192055
MTRLWT
METAR KLWT 192054Z AUTO 29006G14KT 10SM FEW075 14/M14 A2990 RMK AO2
SLP123 T01441139 58012 TSNO





000
SAUS45 KTFX 192027
MTR8S0
METAR K8S0 192015Z 24015KT





000
SAUS45 KTFX 191957
MTRGFA
METAR KGFA 191956Z AUTO 19011G22KT 10SM CLR 16/M10 A2985 RMK AO2
SLP142 T01561100 TSNO $





000
SAUS45 KTFX 191955
MTRLWT
METAR KLWT 191954Z AUTO 27006KT 10SM CLR 13/M14 A2991 RMK AO2 SLP128
T01331139 TSNO





000
SAUS45 KTFX 191955
MTR8S0
METAR K8S0 191945Z 24005KT





000
SAUS45 KTFX 191926
MTR8S0
METAR K8S0 191915Z 22006KT





000
SAUS45 KTFX 191857
MTRGFA
METAR KGFA 191856Z AUTO 21011G18KT 10SM CLR 14/M11 A2987 RMK AO2
SLP150 T01441111 TSNO $





000
SAUS45 KTFX 191855
MTRLWT
METAR KLWT 191854Z AUTO 26007KT 10SM CLR 12/M14 A2992 RMK AO2 SLP136
T01171139 TSNO





000
SAUS45 KTFX 191855
MTR8S0
METAR K8S0 191845Z 22008KT





000
SAUS45 KTFX 191827
MTR8S0
METAR K8S0 191815Z 24008KT





000
SAUS45 KTFX 191757
MTRGFA
METAR KGFA 191756Z AUTO 22008G16KT 10SM CLR 12/M12 A2989 RMK AO2
SLP156 T01221122 10128 21011 58006 TSNO $





000
SAUS45 KTFX 191755
MTRLWT
METAR KLWT 191754Z AUTO 29008KT 240V320 10SM CLR 11/M14 A2994 RMK
AO2 SLP140 T01111144 10111 21017 58007 TSNO





000
SAUS45 KTFX 191727
MTR8S0
METAR K8S0 191715Z 23010KT





000
SAUS45 KTFX 191657
MTRGFA
METAR KGFA 191656Z AUTO 22013KT 10SM CLR 11/M12 A2990 RMK AO2 SLP167
T01111117 TSNO $





000
SAUS45 KTFX 191655
MTR8S0
METAR K8S0 191645Z 23010KT





000
SAUS45 KTFX 191655
MTRLWT
METAR KLWT 191654Z AUTO 30006KT 10SM CLR 09/M15 A2994 RMK AO2 SLP148
T00941150 TSNO





000
SAUS45 KTFX 191626
MTR8S0
METAR K8S0 191615Z 22009KT





000
SAUS45 KTFX 191557
MTRGFA
METAR KGFA 191556Z AUTO 20013G20KT 10SM CLR 10/M11 A2990 RMK AO2
SLP161 T01001106 TSNO $





000
SAUS45 KTFX 191556
MTR8S0
METAR K8S0 191545Z 22007KT





000
SAUS45 KTFX 191555
MTRLWT
METAR KLWT 191554Z AUTO 24010G17KT 10SM CLR 09/M14 A2995 RMK AO2
SLP149 T00891139 TSNO





000
SAUS45 KTFX 191526
MTR8S0
METAR K8S0 191515Z 22011KT





000
SAUS45 KTFX 191457
MTRGFA
METAR KGFA 191456Z AUTO 20010KT 10SM CLR 07/M08 A2991 RMK AO2 SLP168
T00721083 50003 TSNO $





000
SAUS45 KTFX 191456
MTR8S0
METAR K8S0 191445Z 22008KT





000
SAUS45 KTFX 191455
MTRLWT
METAR KLWT 191454Z AUTO 25009KT 10SM CLR 07/M12 A2996 RMK AO2 SLP153
T00721117 51007 TSNO





000
SAUS45 KTFX 191426
MTR8S0
METAR K8S0 191415Z 21010KT





000
SAUS45 KTFX 191357
MTRGFA
METAR KGFA 191356Z AUTO 17006KT 10SM CLR 03/M08 A2991 RMK AO2 SLP173
T00331078 TSNO $





000
SAUS45 KTFX 191355
MTR8S0
METAR K8S0 191345Z 20004KT





000
SAUS45 KTFX 191355
MTRLWT
METAR KLWT 191354Z AUTO 22009KT 10SM CLR 04/M10 A2996 RMK AO2 SLP154
T00441100 TSNO





000
SAUS45 KTFX 191326
MTR8S0
METAR K8S0 191315Z 18003KT





000
SAUS45 KTFX 191257
MTRGFA
METAR KGFA 191256Z AUTO 19007KT 10SM CLR M01/M08 A2991 RMK AO2
SLP174 T10061083 TSNO $





000
SAUS45 KTFX 191255
MTR8S0
METAR K8S0 191245Z 21005KT





000
SAUS45 KTFX 191255
MTRLWT
METAR KLWT 191254Z AUTO 23008KT 10SM CLR M01/M09 A2994 RMK AO2
SLP154 T10061089 TSNO





000
SAUS45 KTFX 191226
MTR8S0
METAR K8S0 191215Z 20006KT





000
SAUS45 KTFX 191157
MTRGFA
METAR KGFA 191156Z AUTO 20011KT 10SM CLR 01/M08 A2990 RMK AO2 SLP169
T00111083 10050 21006 51004 TSNO $





000
SAUS45 KTFX 191155
MTR8S0
METAR K8S0 191145Z 21006KT





000
SAUS45 KTFX 191155
MTRLWT
METAR KLWT 191154Z AUTO 22010KT 10SM CLR M01/M09 A2994 RMK AO2
SLP150 70002 T10061089 10028 21022 53013 TSNO





000
SAUS45 KTFX 191127
MTR8S0
METAR K8S0 191115Z 23007KT





000
SAUS45 KTFX 191057
MTRGFA
METAR KGFA 191056Z AUTO 19012KT 10SM CLR 01/M08 A2990 RMK AO2 SLP168
T00061083 TSNO $





000
SAUS45 KTFX 191056
MTR8S0
METAR K8S0 191045Z 23009KT





000
SAUS45 KTFX 191055
MTRLWT
METAR KLWT 191054Z AUTO 24010KT 10SM CLR 00/M08 A2991 RMK AO2 SLP146
T00001083 TSNO





000
SAUS45 KTFX 191026
MTR8S0
METAR K8S0 191015Z 21009KT





000
SAUS45 KTFX 190957
MTRGFA
METAR KGFA 190956Z AUTO 21011KT 10SM CLR 04/M09 A2989 RMK AO2 SLP163
T00391089 TSNO $





000
SAUS45 KTFX 190956
MTR8S0
METAR K8S0 190945Z 23009KT





000
SAUS45 KTFX 190955
MTRLWT
METAR KLWT 190954Z AUTO 26014KT 10SM CLR 01/M08 A2989 RMK AO2 SLP141
T00111083 TSNO





000
SAUS45 KTFX 190927
MTR8S0
METAR K8S0 190915Z 24009KT





000
SAUS45 KTFX 190857
MTRGFA
METAR KGFA 190856Z AUTO 21014KT 10SM CLR 03/M08 A2988 RMK AO2 SLP163
T00281078 51011 TSNO





000
SAUS45 KTFX 190855
MTR8S0
METAR K8S0 190845Z 25008KT





000
SAUS45 KTFX 190855
MTRLWT
METAR KLWT 190854Z AUTO 23013KT 10SM CLR 01/M09 A2989 RMK AO2 SLP125
T00111089 51007 TSNO





000
SAUS45 KTFX 190826
MTR8S0
METAR K8S0 190815Z 24008KT





000
SAUS45 KTFX 190757
MTRGFA
METAR KGFA 190756Z AUTO 21014KT 10SM CLR 04/M08 A2988 RMK AO2 SLP157
T00441078 TSNO





000
SAUS45 KTFX 190755
MTR8S0
METAR K8S0 190745Z 23010KT





000
SAUS45 KTFX 190755
MTRLWT
METAR KLWT 190754Z AUTO 24015KT 10SM CLR 02/M09 A2989 RMK AO2 SLP122
T00171089 TSNO





000
SAUS45 KTFX 190726
MTR8S0
METAR K8S0 190715Z 25013KT





000
SAUS45 KTFX 190657
MTRGFA
METAR KGFA 190656Z AUTO 21014KT 10SM CLR 04/M08 A2987 RMK AO2 SLP153
T00441078 TSNO





000
SAUS45 KTFX 190656
MTR8S0
METAR K8S0 190645Z 25012G26KT





000
SAUS45 KTFX 190655
MTRLWT
METAR KLWT 190654Z AUTO 24014KT 10SM CLR 01/M09 A2988 RMK AO2 SLP121
T00111089 401390011 TSNO





000
SAUS45 KTFX 190626
MTR8S0
METAR K8S0 190615Z 24013KT





000
SAUS45 KTFX 190558
MTRGFA
METAR KGFA 190556Z AUTO 22015KT 10SM CLR 05/M08 A2985 RMK AO2 SLP143
T00501083 10100 20011 401330011 51016 TSNO





000
SAUS45 KTFX 190555
MTR8S0
METAR K8S0 190545Z 25013G28KT





000
SAUS45 KTFX 190555
MTRLWT
METAR KLWT 190554Z AUTO 24015KT 10SM CLR 02/M09 A2987 RMK AO2 SLP119
T00221089 10089 20011 51012 TSNO





000
SAUS45 KTFX 190527
MTR8S0
METAR K8S0 190515Z 24014KT





000
SAUS45 KTFX 190457
MTRGFA
METAR KGFA 190456Z AUTO 19012KT 10SM CLR 02/M08 A2984 RMK AO2 SLP148
T00221078 TSNO





000
SAUS45 KTFX 190455
MTRLWT
METAR KLWT 190454Z AUTO 23015KT 10SM CLR 01/M08 A2986 RMK AO2 SLP118
T00111083 TSNO





000
SAUS45 KTFX 190455
MTR8S0
METAR K8S0 190445Z 24013G31KT





000
SAUS45 KTFX 190426
MTR8S0
METAR K8S0 190415Z 24017G28KT





000
SAUS45 KTFX 190357
MTRGFA
METAR KGFA 190356Z AUTO 23017G24KT 10SM CLR 07/M09 A2981 RMK AO2
SLP133 T00721094 TSNO





000
SAUS45 KTFX 190355
MTR8S0
METAR K8S0 190345Z 23021G33KT





000
SAUS45 KTFX 190355
MTRLWT
METAR KLWT 190354Z AUTO 24017KT 10SM CLR 03/M08 A2984 RMK AO2 SLP109
T00281083 TSNO





000
SAUS45 KTFX 190326
MTR8S0
METAR K8S0 190315Z 24013KT





000
SAUS45 KTFX 190257
MTRGFA
METAR KGFA 190256Z AUTO 24013KT 10SM CLR 07/M09 A2980 RMK AO2 PK WND
23028/0217 SLP126 T00721089 53019 TSNO





000
SAUS45 KTFX 190256
MTR8S0
METAR K8S0 190245Z 25017G28KT





000
SAUS45 KTFX 190255
MTRLWT
METAR KLWT 190254Z AUTO 26015KT 10SM CLR 03/M08 A2983 RMK AO2 SLP105
T00331078 53022 TSNO





000
SAUS45 KTFX 190227
MTR8S0
METAR K8S0 190215Z 25017G28KT





000
SAUS45 KTFX 190158
MTRGFA
METAR KGFA 190156Z AUTO 23018G25KT 10SM BKN110 09/M09 A2977 RMK AO2
PK WND 22034/0106 SLP118 T00891094 TSNO





000
SAUS45 KTFX 190156
MTR8S0
METAR K8S0 190145Z 24017G35KT





000
SAUS45 KTFX 190155
MTRLWT
METAR KLWT 190154Z AUTO 27018G23KT 10SM CLR 06/M09 A2980 RMK AO2 PK
WND 27035/0100 SLP094 T00561089 TSNO





000
SAUS45 KTFX 190127
MTR8S0
METAR K8S0 190115Z 25016G35KT





000
SAUS45 KTFX 190057
MTRGFA
METAR KGFA 190056Z AUTO 24017G27KT 10SM CLR 09/M10 A2975 RMK AO2 PK
WND 23038/0017 SLP110 T00941100 TSNO





000
SAUS45 KTFX 190055
MTRLWT
METAR KLWT 190054Z AUTO 27029G36KT 10SM SCT100 07/M10 A2978 RMK AO2
PK WND 26037/0038 SLP084 T00721100 TSNO





000
SAUS45 KTFX 190055
MTR8S0
METAR K8S0 190045Z 24018G34KT





000
SAUS45 KTFX 190027
MTR8S0
METAR K8S0 190015Z 24019G32KT





000
SAUS45 KTFX 182358
MTRGFA
METAR KGFA 182356Z AUTO 23020G33KT 10SM BKN090 10/M11 A2973 RMK AO2
PK WND 22035/2321 SLP103 T01001106 10133 20094 53012 TSNO





000
SAUS45 KTFX 182356 COR
MTRLWT
METAR KLWT 182354Z AUTO 28021G28KT 10SM FEW080 BKN110 08/M06 A2975
RMK AO2 PK WND 27028/2354 SLP076 60002 T00831061 10139 20028 50025
TSNO





000
SAUS45 KTFX 182355
MTR8S0
METAR K8S0 182345Z 25018G37KT





000
SAUS45 KTFX 182326
MTR8S0
METAR K8S0 182315Z 25019G37KT





000
SAUS45 KTFX 182257
MTRGFA
METAR KGFA 182256Z AUTO 24021G31KT 10SM SCT085 10/M12 A2972 RMK AO2
PK WND 23037/2242 SLP097 T01001122 TSNO





000
SAUS45 KTFX 182255
MTRLWT
METAR KLWT 182254Z AUTO VRB06KT 10SM FEW039 OVC060 05/00 A2977 RMK
AO2 RAE47 SLP086 P0002 T00500000 TSNO





000
SAUS45 KTFX 182255
MTR8S0
METAR K8S0 182245Z 25020G39KT





000
SAUS45 KTFX 182240
MTRLWT
SPECI KLWT 182239Z AUTO 00000KT 7SM -RA BKN034 BKN045 OVC055 03/00
A2976 RMK AO2 P0002 T00330000 TSNO





000
SAUS45 KTFX 182226
MTR8S0
METAR K8S0 182215Z 25022G38KT





000
SAUS45 KTFX 182157
MTRGFA
METAR KGFA 182156Z AUTO 24018G34KT 10SM SCT095 11/M13 A2970 RMK AO2
PK WND 25038/2130 SLP091 T01061128 TSNO





000
SAUS45 KTFX 182155
MTRLWT
METAR KLWT 182154Z AUTO 31014G28KT 10SM -RA OVC028 03/00 A2976 RMK
AO2 PK WND 29048/2116 RAB2058 SLP084 P0000 T00330000 TSNO





000
SAUS45 KTFX 182155
MTR8S0
METAR K8S0 182145Z 25022G36KT





000
SAUS45 KTFX 182126
MTR8S0
METAR K8S0 182115Z 24018G34KT





000
SAUS45 KTFX 182057
MTRGFA
METAR KGFA 182056Z AUTO 20021G36KT 10SM BKN100 10/M09 A2969 RMK AO2
PK WND 21042/1959 SLP088 T01001094 53009 TSNO





000
SAUS45 KTFX 182055
MTR8S0
METAR K8S0 182045Z 23022G41KT





000
SAUS45 KTFX 182055
MTRLWT
METAR KLWT 182054Z AUTO 30011KT 10SM FEW060 SCT075 BKN090 12/M02
A2967 RMK AO2 SLP042 T01171017 58003 TSNO





000
SAUS45 KTFX 182027
MTR8S0
METAR K8S0 182015Z 23022G41KT





000
SAUS45 KTFX 181957
MTRGFA
METAR KGFA 181956Z AUTO 23026G41KT 10SM OVC070 11/M09 A2969 RMK AO2
PK WND 24041/1953 SLP087 T01061094 TSNO





000
SAUS45 KTFX 181955
MTRLWT
METAR KLWT 181954Z AUTO 33008KT 10SM SCT055 12/M01 A2968 RMK AO2
SLP044 T01221006 TSNO





000
SAUS45 KTFX 181955
MTR8S0
METAR K8S0 181945Z 23024G42KT





000
SAUS45 KTFX 181927
MTR8S0
METAR K8S0 181915Z 23021G36KT





000
SAUS45 KTFX 181857
MTRGFA
METAR KGFA 181856Z AUTO 26020G28KT 10SM BKN070 OVC085 12/M06 A2966
RMK AO2 PK WND 21029/1816 SLP074 T01171056 TSNO





000
SAUS45 KTFX 181855
MTR8S0
METAR K8S0 181845Z 23021G32KT





000
SAUS45 KTFX 181855
MTRLWT
METAR KLWT 181854Z AUTO 28011KT 10SM FEW120 11/01 A2968 RMK AO2
SLP044 T01060011 TSNO





000
SAUS45 KTFX 181827
MTR8S0
METAR K8S0 181815Z 23016G28KT





000
SAUS45 KTFX 181757
MTRGFA
METAR KGFA 181756Z AUTO 22018G25KT 10SM CLR 12/M02 A2966 RMK AO2 PK
WND 21028/1729 SLP076 T01221017 10122 20072 53007 TSNO





000
SAUS45 KTFX 181756 COR
MTRLWT
METAR KLWT 181754Z AUTO 25005KT 10SM FEW070 BKN095 OVC110 10/02
A2968 RMK AO2 RAB1657E27 SLP045 P0000 60000 T01000017 10100 20061
50001 TSNO





000
SAUS45 KTFX 181756
MTR8S0
METAR K8S0 181745Z 000000G34KT





000
SAUS45 KTFX 181727
MTR8S0
METAR K8S0 181715Z 23019G31KT





000
SAUS45 KTFX 181657
MTRGFA
METAR KGFA 181656Z AUTO 20022G28KT 10SM CLR 11/00 A2965 RMK AO2 PK
WND 20028/1650 SLP073 T01060000 TSNO





000
SAUS45 KTFX 181656
MTR8S0
METAR K8S0 181645Z 23015G32KT





000
SAUS45 KTFX 181655
MTRLWT
METAR KLWT 181654Z AUTO 27006KT 10SM BKN055 OVC070 09/02 A2970 RMK
AO2 RAB23E34 SLP053 P0000 T00940022 TSNO





000
SAUS45 KTFX 181627
MTR8S0
METAR K8S0 181615Z 26015G31KT





000
SAUS45 KTFX 181557
MTRGFA
METAR KGFA 181556Z AUTO 20017KT 10SM CLR 09/02 A2965 RMK AO2 SLP072
T00940017 TSNO





000
SAUS45 KTFX 181556
MTR8S0
METAR K8S0 181545Z 27016G38KT





000
SAUS45 KTFX 181555
MTRLWT
METAR KLWT 181554Z AUTO 26007KT 10SM OVC075 09/02 A2969 RMK AO2
SLP049 T00940022 TSNO





000
SAUS45 KTFX 181526
MTR8S0
METAR K8S0 181515Z 23020G38KT





000
SAUS45 KTFX 181457
MTRGFA
METAR KGFA 181456Z AUTO 20014KT 10SM FEW120 09/03 A2964 RMK AO2
SLP070 T00890028 53006 TSNO





000
SAUS45 KTFX 181456
MTRLWT
METAR KLWT 181454Z AUTO 24013KT 10SM OVC070 09/02 A2968 RMK AO2
SLP040 T00890022 55003 TSNO





000
SAUS45 KTFX 181456
MTR8S0
METAR K8S0 181445Z 23021G37KT





000
SAUS45 KTFX 181426
MTR8S0
METAR K8S0 181415Z 24013G26KT





000
SAUS45 KTFX 181357
MTRGFA
METAR KGFA 181356Z AUTO 20013KT 10SM SCT110 08/03 A2963 RMK AO2
SLP064 T00780033 TSNO





000
SAUS45 KTFX 181355
MTR8S0
METAR K8S0 181345Z 23012KT





000
SAUS45 KTFX 181355
MTRLWT
METAR KLWT 181354Z AUTO 21010KT 10SM BKN070 OVC085 08/03 A2967 RMK
AO2 SLP037 T00780028 TSNO





000
SAUS45 KTFX 181327
MTR8S0
METAR K8S0 181315Z 23005KT





000
SAUS45 KTFX 181257
MTRGFA
METAR KGFA 181256Z AUTO 19013KT 10SM FEW075 OVC100 08/04 A2963 RMK
AO2 SLP060 T00780039 TSNO





000
SAUS45 KTFX 181255
MTRLWT
METAR KLWT 181254Z AUTO 27004KT 10SM OVC080 07/03 A2967 RMK AO2
SLP042 T00670028 TSNO





000
SAUS45 KTFX 181255
MTR8S0
METAR K8S0 181245Z 22007KT





000
SAUS45 KTFX 181226
MTR8S0
METAR K8S0 181215Z 23011KT





000
SAUS45 KTFX 181157
MTRGFA
METAR KGFA 181156Z AUTO 19010KT 10SM OVC100 08/04 A2962 RMK AO2
SLP059 60002 70006 T00780044 10083 20072 55009 TSNO





000
SAUS45 KTFX 181156
MTR8S0
METAR K8S0 181145Z 22007KT





000
SAUS45 KTFX 181155
MTRLWT
METAR KLWT 181154Z AUTO 25010KT 10SM OVC090 06/01 A2969 RMK AO2
SLP048 T00610006 10078 20044 53006 TSNO





000
SAUS45 KTFX 181126
MTR8S0
METAR K8S0 181115Z 27004KT





000
SAUS45 KTFX 181057
MTRGFA
METAR KGFA 181056Z AUTO 19011KT 10SM OVC090 08/05 A2962 RMK AO2
RAE28 SLP055 P0001 T00780050 TSNO





000
SAUS45 KTFX 181055
MTRLWT
METAR KLWT 181054Z AUTO 17003KT 10SM BKN090 OVC110 06/01 A2967 RMK
AO2 SLP043 T00560006 TSNO





000
SAUS45 KTFX 181055
MTR8S0
METAR K8S0 181045Z 23009KT





000
SAUS45 KTFX 181027
MTR8S0
METAR K8S0 181015Z 23012KT





000
SAUS45 KTFX 180957
MTRGFA
METAR KGFA 180956Z AUTO 19009KT 10SM -RA OVC055 07/06 A2965 RMK AO2
SLP067 P0001 T00720056 TSNO





000
SAUS45 KTFX 180956
MTR8S0
METAR K8S0 180945Z 23011KT





000
SAUS45 KTFX 180955
MTRLWT
METAR KLWT 180954Z AUTO 12005KT 10SM OVC100 07/00 A2965 RMK AO2
SLP034 T00720000 TSNO





000
SAUS45 KTFX 180927
MTR8S0
METAR K8S0 180915Z 23009KT





000
SAUS45 KTFX 180857
MTRGFA
METAR KGFA 180856Z AUTO 22011KT 10SM -RA BKN050 OVC060 08/05 A2965
RMK AO2 RAB43 SLP071 P0000 60000 T00830050 55002 TSNO





000
SAUS45 KTFX 180856
MTRLWT
METAR KLWT 180854Z AUTO 09008KT 10SM SCT110 06/00 A2967 RMK AO2
SLP041 T00610000 56025 TSNO





000
SAUS45 KTFX 180855
MTR8S0
METAR K8S0 180845Z 22011KT





000
SAUS45 KTFX 180827
MTR8S0
METAR K8S0 180815Z 22010KT





000
SAUS45 KTFX 180757
MTRGFA
METAR KGFA 180756Z AUTO 14006KT 10SM BKN090 OVC110 08/05 A2962 RMK
AO2 SLP061 T00780050 TSNO





000
SAUS45 KTFX 180756
MTRLWT
METAR KLWT 180754Z AUTO 09007KT 10SM FEW110 06/00 A2969 RMK AO2
SLP051 T00610000 TSNO





000
SAUS45 KTFX 180756
MTR8S0
METAR K8S0 180745Z 23007KT





000
SAUS45 KTFX 180726
MTR8S0
METAR K8S0 180715Z 23004KT





000
SAUS45 KTFX 180657
MTRGFA
METAR KGFA 180656Z AUTO 12006KT 10SM OVC090 08/05 A2964 RMK AO2
SLP070 T00780050 TSNO





000
SAUS45 KTFX 180655
MTRLWT
METAR KLWT 180654Z AUTO 11009KT 10SM BKN085 OVC110 07/01 A2972 RMK
AO2 SLP055 T00670011 401221039 TSNO





000
SAUS45 KTFX 180655
MTR8S0
METAR K8S0 180645Z 25006KT





000
SAUS45 KTFX 180627
MTR8S0
METAR K8S0 180615Z 22007KT





000
SAUS45 KTFX 180557
MTRGFA
METAR KGFA 180556Z AUTO 12008KT 10SM FEW070 BKN085 OVC110 08/05
A2966 RMK AO2 RAE13 SLP076 P0000 60004 T00780050 10144 20072
401561006 58017 TSNO





000
SAUS45 KTFX 180555
MTRLWT
METAR KLWT 180554Z AUTO 10006KT 10SM OVC100 07/01 A2975 RMK AO2
SLP068 T00720006 10122 20067 58005 TSNO





000
SAUS45 KTFX 180555
MTR8S0
METAR K8S0 180545Z 21008KT





000
SAUS45 KTFX 180527
MTR8S0
METAR K8S0 180515Z 22010KT





000
SAUS45 KTFX 180457
MTRGFA
METAR KGFA 180456Z AUTO 14005KT 10SM -RA OVC055 08/06 A2969 RMK AO2
SLP087 P0001 T00830061 TSNO





000
SAUS45 KTFX 180455
MTR8S0
METAR K8S0 180445Z 22010KT





000
SAUS45 KTFX 180455
MTRLWT
METAR KLWT 180454Z AUTO 12004KT 10SM BKN090 BKN100 08/01 A2977 RMK
AO2 SLP075 T00780011 TSNO





000
SAUS45 KTFX 180427
MTR8S0
METAR K8S0 180415Z 22009KT





000
SAUS45 KTFX 180357
MTRGFA
METAR KGFA 180356Z AUTO 13004KT 10SM -RA OVC060 08/06 A2971 RMK AO2
SLP094 P0002 T00830061 TSNO





000
SAUS45 KTFX 180356
MTR8S0
METAR K8S0 180345Z 21011KT





000
SAUS45 KTFX 180355
MTRLWT
METAR KLWT 180354Z AUTO 13005KT 10SM OVC080 08/02 A2978 RMK AO2
SLP082 T00830017 TSNO





000
SAUS45 KTFX 180327
MTR8S0
METAR K8S0 180315Z 21011KT





000
SAUS45 KTFX 180257
MTRGFA
METAR KGFA 180256Z AUTO 13006KT 10SM -RA OVC055 09/05 A2971 RMK AO2
SLP095 P0001 60001 T00940050 53000 TSNO





000
SAUS45 KTFX 180256
MTR8S0
METAR K8S0 180245Z 21009KT





000
SAUS45 KTFX 180255
MTRLWT
METAR KLWT 180254Z AUTO 27010KT 10SM OVC070 11/02 A2976 RMK AO2
SLP082 T01060017 55011 TSNO





000
SAUS45 KTFX 180227
MTR8S0
METAR K8S0 180215Z 21009KT





000
SAUS45 KTFX 180158
MTRGFA
METAR KGFA 180156Z AUTO 22006KT 10SM -RA OVC055 12/03 A2971 RMK AO2
SLP095 P0000 T01220028 TSNO





000
SAUS45 KTFX 180155
MTRLWT
METAR KLWT 180154Z AUTO 22007KT 10SM BKN070 OVC090 12/00 A2976 RMK
AO2 SLP081 T01170000 TSNO





000
SAUS45 KTFX 180155
MTR8S0
METAR K8S0 180145Z 21008KT





000
SAUS45 KTFX 180057
MTRGFA
METAR KGFA 180056Z AUTO 21005KT 10SM -RA OVC065 14/01 A2970 RMK AO2
RAB17 SLP095 P0000 T01390006 TSNO





000
SAUS45 KTFX 180055
MTRLWT
METAR KLWT 180054Z AUTO 10011KT 10SM FEW060 SCT075 OVC100 11/01
A2978 RMK AO2 SLP095 T01060011 TSNO





000
SAUS45 KTFX 180055
MTR8S0
METAR K8S0 180045Z 21008KT





000
SAUS45 KTFX 180027
MTR8S0
METAR K8S0 180015Z 22008KT





000
SAUS45 KTFX 172358
MTRGFA
METAR KGFA 172356Z AUTO 17006KT 10SM OVC085 14/M01 A2971 RMK AO2
SLP097 60000 T01441011 10156 20094 56018 TSNO





000
SAUS45 KTFX 172355
MTR8S0
METAR K8S0 172345Z 22009KT





000
SAUS45 KTFX 172355
MTRLWT
METAR KLWT 172354Z AUTO 09007KT 10SM OVC100 10/01 A2980 RMK AO2
SLP105 60000 T01000011 10122 20100 57015 TSNO





000
SAUS45 KTFX 172327
MTR8S0
METAR K8S0 172315Z 22011KT





000
SAUS45 KTFX 172258
MTRGFA
METAR KGFA 172256Z AUTO 20009KT 10SM OVC100 15/M02 A2972 RMK AO2
SLP101 T01501017 TSNO





000
SAUS45 KTFX 172255
MTRLWT
METAR KLWT 172254Z AUTO 03005KT 10SM OVC070 11/02 A2982 RMK AO2
SLP107 T01060017 TSNO





000
SAUS45 KTFX 172255
MTR8S0
METAR K8S0 172245Z 22011KT





000
SAUS45 KTFX 172226
MTR8S0
METAR K8S0 172215Z 21010KT





000
SAUS45 KTFX 172158
MTRGFA
METAR KGFA 172156Z AUTO 18009G20KT 10SM BKN070 15/M01 A2974 RMK AO2
SLP106 T01501011 TSNO





000
SAUS45 KTFX 172155
MTR8S0
METAR K8S0 172145Z 21010KT





000
SAUS45 KTFX 172155
MTRLWT
METAR KLWT 172154Z AUTO 33006KT 10SM BKN047 OVC055 10/01 A2983 RMK
AO2 RAB20E30 SLP112 P0000 T01000011 TSNO





000
SAUS45 KTFX 172126
MTR8S0
METAR K8S0 172115Z 22011KT





000
SAUS45 KTFX 172058
MTRGFA
METAR KGFA 172056Z AUTO 15008KT 10SM FEW090 13/M02 A2977 RMK AO2
SLP120 60000 T01281017 58018 TSNO





000
SAUS45 KTFX 172056
MTR8S0
METAR K8S0 172045Z 21011KT





000
SAUS45 KTFX 172055
MTRLWT
METAR KLWT 172054Z AUTO 26009KT 10SM BKN050 OVC060 11/01 A2985 RMK
AO2 RAB32E45 SLP117 P0000 60000 T01060006 56008 TSNO





000
SAUS45 KTFX 172027
MTR8S0
METAR K8S0 172015Z 21011KT





000
SAUS45 KTFX 171957
MTRGFA
METAR KGFA 171956Z AUTO 14014KT 10SM OVC070 12/01 A2979 RMK AO2
RAE10 SLP130 P0000 T01170006 TSNO





000
SAUS45 KTFX 171955
MTRLWT
METAR KLWT 171954Z AUTO VRB04KT 10SM OVC055 10/00 A2985 RMK AO2
RAB25E49 SLP118 P0000 T01000000 TSNO





000
SAUS45 KTFX 171955
MTR8S0
METAR K8S0 171945Z 22010KT





000
SAUS45 KTFX 171926
MTR8S0
METAR K8S0 171915Z 22011KT





000
SAUS45 KTFX 171857
MTRGFA
METAR KGFA 171856Z AUTO 16010KT 10SM -RA BKN055 OVC065 10/00 A2981
RMK AO2 RAB51 SLP140 P0000 T01000000 TSNO





000
SAUS45 KTFX 171856
MTRLWT
METAR KLWT 171854Z AUTO 24013G19KT 10SM FEW045 FEW055 SCT080 12/00
A2986 RMK AO2 SLP117 T01220000 TSNO





000
SAUS45 KTFX 171856
MTR8S0
METAR K8S0 171845Z 21008KT





000
SAUS45 KTFX 171827
MTR8S0
METAR K8S0 171815Z 22008KT





000
SAUS45 KTFX 171757
MTRGFA
METAR KGFA 171756Z AUTO 21013G20KT 10SM BKN060 OVC070 11/M02 A2983
RMK AO2 SLP143 T01111022 10117 20011 58005 TSNO





000
SAUS45 KTFX 171756
MTR8S0
METAR K8S0 171745Z 21007KT





000
SAUS45 KTFX 171755
MTRLWT
METAR KLWT 171754Z AUTO 24013KT 10SM SCT060 10/M01 A2988 RMK AO2
SLP127 T01001011 10111 21039 58009 TSNO





000
SAUS45 KTFX 171726
MTR8S0
METAR K8S0 171715Z 20007KT





000
SAUS45 KTFX 171657
MTRGFA
METAR KGFA 171656Z AUTO 22015KT 10SM OVC065 11/M02 A2983 RMK AO2
SLP146 T01061017 TSNO





000
SAUS45 KTFX 171655
MTRLWT
METAR KLWT 171654Z AUTO 24014KT 10SM CLR 09/00 A2989 RMK AO2 WSHFT
1600 SLP131 T00940000 TSNO





000
SAUS45 KTFX 171655
MTR8S0
METAR K8S0 171645Z 21007KT





000
SAUS45 KTFX 171627
MTR8S0
METAR K8S0 171615Z 21008KT





000
SAUS45 KTFX 171621
MTRLWT
SPECI KLWT 171620Z AUTO 24013KT 10SM CLR 08/01 A2990 RMK AO2 WSHFT
1600 T00830006 TSNO





000
SAUS45 KTFX 171557
MTRGFA
METAR KGFA 171556Z AUTO 21018KT 10SM OVC100 10/M01 A2984 RMK AO2
SLP149 T01001011 TSNO





000
SAUS45 KTFX 171555
MTR8S0
METAR K8S0 171545Z 22010KT





000
SAUS45 KTFX 171555
MTRLWT
METAR KLWT 171554Z AUTO 00000KT 10SM CLR 07/02 A2990 RMK AO2 SLP139
T00670022 TSNO





000
SAUS45 KTFX 171527
MTR8S0
METAR K8S0 171515Z 21008KT





000
SAUS45 KTFX 171457
MTRGFA
METAR KGFA 171456Z AUTO 21012KT 10SM OVC100 09/01 A2984 RMK AO2
SLP150 T00890006 56004 TSNO





000
SAUS45 KTFX 171455
MTRLWT
METAR KLWT 171454Z AUTO 10006KT 10SM CLR 01/M01 A2991 RMK AO2 SLP151
T00111011 56005 TSNO





000
SAUS45 KTFX 171455
MTR8S0
METAR K8S0 171445Z 21008KT





000
SAUS45 KTFX 171427
MTR8S0
METAR K8S0 171415Z 21007KT





000
SAUS45 KTFX 171357
MTRGFA
METAR KGFA 171356Z AUTO 20005KT 10SM OVC110 04/M01 A2985 RMK AO2
SLP156 T00441006 TSNO





000
SAUS45 KTFX 171356
MTRLWT
METAR KLWT 171354Z AUTO 11005KT 10SM FEW060 OVC090 00/M02 A2992 RMK
AO2 SLP156 T00001017 TSNO





000
SAUS45 KTFX 171355
MTR8S0
METAR K8S0 171345Z 21008KT





000
SAUS45 KTFX 171326
MTR8S0
METAR K8S0 171315Z 21007KT





000
SAUS45 KTFX 171257
MTRGFA
METAR KGFA 171256Z AUTO 20009KT 10SM CLR 02/M02 A2985 RMK AO2 SLP157
T00171022 TSNO





000
SAUS45 KTFX 171255
MTR8S0
METAR K8S0 171245Z 21004KT





000
SAUS45 KTFX 171227
MTR8S0
METAR K8S0 171215Z 21007KT





000
SAUS45 KTFX 171157
MTRGFA
METAR KGFA 171156Z AUTO 18007KT 10SM CLR 02/M02 A2986 RMK AO2 SLP158
70004 T00171022 10022 21006 58009 TSNO $





000
SAUS45 KTFX 171155
MTR8S0
METAR K8S0 171145Z 21008KT





000
SAUS45 KTFX 171126
MTR8S0
METAR K8S0 171115Z 21008KT





000
SAUS45 KTFX 171057
MTRGFA
METAR KGFA 171056Z AUTO 19009KT 10SM CLR 02/M02 A2987 RMK AO2 SLP164
T00171022 TSNO $





000
SAUS45 KTFX 171055
MTR8S0
METAR K8S0 171045Z 21006KT





000
SAUS45 KTFX 171027
MTR8S0
METAR K8S0 171015Z 21006KT





000
SAUS45 KTFX 170957
MTRGFA
METAR KGFA 170956Z AUTO 19008KT 10SM CLR 01/M03 A2988 RMK AO2 SLP165
T00111028 TSNO $





000
SAUS45 KTFX 170955
MTR8S0
METAR K8S0 170945Z 21007KT





000
SAUS45 KTFX 170927
MTR8S0
METAR K8S0 170915Z 22009KT





000
SAUS45 KTFX 170857
MTRGFA
METAR KGFA 170856Z AUTO 18011KT 10SM CLR 02/M02 A2989 RMK AO2 SLP167
T00171022 58010 TSNO $





000
SAUS45 KTFX 170855
MTR8S0
METAR K8S0 170845Z 22008KT





000
SAUS45 KTFX 170826
MTR8S0
METAR K8S0 170815Z 22008KT





000
SAUS45 KTFX 170757
MTRGFA
METAR KGFA 170756Z AUTO 20009KT 10SM CLR 01/M02 A2990 RMK AO2 SLP174
T00111022 TSNO $





000
SAUS45 KTFX 170755
MTR8S0
METAR K8S0 170745Z 21008KT





000
SAUS45 KTFX 170727
MTR8S0
METAR K8S0 170715Z 23006KT





000
SAUS45 KTFX 170657
MTRGFA
METAR KGFA 170656Z AUTO 17009KT 10SM CLR 01/M02 A2991 RMK AO2 SLP178
T00061022 TSNO





000
SAUS45 KTFX 170655
MTR8S0
METAR K8S0 170645Z 21007KT





000
SAUS45 KTFX 170626
MTR8S0
METAR K8S0 170615Z 26006KT





000
SAUS45 KTFX 170557
MTRGFA
METAR KGFA 170556Z AUTO 14009KT 10SM CLR 01/M01 A2992 RMK AO2 SLP185
60000 T00111011 10061 20011 400781006 58012 TSNO





000
SAUS45 KTFX 170555
MTR8S0
METAR K8S0 170545Z 26003KT





    US Dept of Commerce
    National Oceanic and Atmospheric Administration
    National Weather Service
    1325 East West Highway
    Silver Spring, MD 20910
    Page Author: NWS Internet Services Team
Disclaimer
Information Quality
Credits
Glossary
Privacy Policy
Freedom of Information Act (FOIA)
About Us
Career Opportunities